Time;durP1;ratioP1;P1;durP2;ratioP2;P2;SDS_P1;SDS_P2;PMS_P1;PMS_P2;Temp;Humidity;BMP_temperature;BMP_pressure;BME280_temperature;BME280_humidity;BME280_pressure;Samples;Min_cycle;Max_cycle;Signal;HPM_P1;HPM_P2
2022/09/05 00:02:03;;;;;;;4.25;2.20;;;;;;;;;;5024734;28;21047;-72
2022/09/05 00:05:06;;;;;;;3.10;2.00;;;;;;;;;;5040315;28;20207;-72
2022/09/05 00:08:01;;;;;;;1.77;1.67;;;;;;;;;;5033753;28;20655;-72
2022/09/05 00:10:45;;;;;;;2.70;1.92;;;;;;;;;;5031765;28;20224;-73
2022/09/05 00:13:21;;;;;;;2.00;1.90;;;;;;;;;;5004950;28;20211;-72
2022/09/05 00:16:12;;;;;;;3.85;1.67;;;;;;;;;;5015909;28;20219;-72
2022/09/05 00:18:51;;;;;;;2.10;2.00;;;;;;;;;;5013920;28;20216;-72
2022/09/05 00:21:40;;;;;;;2.40;2.20;;;;;;;;;;5000292;28;20223;-72
2022/09/05 00:24:20;;;;;;;2.50;2.00;;;;;;;;;;5006559;28;20335;-72
2022/09/05 00:27:10;;;;;;;2.65;2.10;;;;;;;;;;5031872;28;20258;-73
2022/09/05 00:29:57;;;;;;;2.33;2.10;;;;;;;;;;5003116;28;20682;-72
2022/09/05 00:32:25;;;;;;;2.75;1.80;;;;;;;;;;5019854;28;20232;-72
2022/09/05 00:35:08;;;;;;;2.45;1.90;;;;;;;;;;5037599;28;20235;-72
2022/09/05 00:37:42;;;;;;;2.22;2.03;;;;;;;;;;5039281;28;20242;-73
2022/09/05 00:40:32;;;;;;;3.83;2.17;;;;;;;;;;5017795;28;20227;-72
2022/09/05 00:43:02;;;;;;;4.82;2.00;;;;;;;;;;5018486;28;20583;-73
2022/09/05 00:45:42;;;;;;;3.33;2.08;;;;;;;;;;5010074;28;20244;-72
2022/09/05 00:48:28;;;;;;;2.00;1.80;;;;;;;;;;5035440;28;20673;-73
2022/09/05 00:51:15;;;;;;;4.15;2.15;;;;;;;;;;5011465;28;20322;-72
2022/09/05 00:54:00;;;;;;;2.35;2.05;;;;;;;;;;5019362;28;20228;-73
2022/09/05 00:56:33;;;;;;;2.22;1.92;;;;;;;;;;5017975;28;20224;-72
2022/09/05 00:59:37;;;;;;;2.22;2.03;;;;;;;;;;5002774;28;20752;-72
2022/09/05 01:02:15;;;;;;;2.00;1.80;;;;;;;;;;5020231;28;20242;-72
2022/09/05 01:04:59;;;;;;;5.07;2.15;;;;;;;;;;5036322;28;20257;-72
2022/09/05 01:07:27;;;;;;;2.65;2.00;;;;;;;;;;5023854;28;20224;-72
2022/09/05 01:10:19;;;;;;;2.95;1.85;;;;;;;;;;5025598;28;20585;-73
2022/09/05 01:13:16;;;;;;;2.45;1.90;;;;;;;;;;5017251;28;20654;-72
2022/09/05 01:15:51;;;;;;;3.88;2.00;;;;;;;;;;5003946;28;20718;-72
2022/09/05 01:18:45;;;;;;;2.20;2.00;;;;;;;;;;5031975;28;20631;-72
2022/09/05 01:21:24;;;;;;;4.82;1.92;;;;;;;;;;5019913;28;20311;-72
2022/09/05 01:24:02;;;;;;;2.42;2.03;;;;;;;;;;5008269;28;20731;-72
2022/09/05 01:26:43;;;;;;;2.30;2.08;;;;;;;;;;5017845;28;20235;-71
2022/09/05 01:29:46;;;;;;;2.38;2.13;;;;;;;;;;5031474;28;20227;-72
2022/09/05 01:32:20;;;;;;;3.60;1.90;;;;;;;;;;5006808;28;20222;-71
2022/09/05 01:35:15;;;;;;;3.40;2.30;;;;;;;;;;5034179;28;20695;-72
2022/09/05 01:37:45;;;;;;;3.55;2.17;;;;;;;;;;5022756;28;20609;-73
2022/09/05 01:40:26;;;;;;;2.03;1.80;;;;;;;;;;5013830;28;20677;-73
2022/09/05 01:43:22;;;;;;;2.00;1.90;;;;;;;;;;5009950;28;20238;-72
2022/09/05 01:45:53;;;;;;;2.10;1.88;;;;;;;;;;5036484;28;20223;-72
2022/09/05 01:48:49;;;;;;;2.40;2.10;;;;;;;;;;5040353;28;20252;-73
2022/09/05 01:51:20;;;;;;;3.05;1.80;;;;;;;;;;5025164;28;20661;-72
2022/09/05 01:53:49;;;;;;;2.58;1.90;;;;;;;;;;5004504;28;20232;-73
2022/09/05 01:56:25;;;;;;;2.20;2.00;;;;;;;;;;5006001;28;20237;-73
2022/09/05 01:59:05;;;;;;;2.22;2.03;;;;;;;;;;5009585;28;20227;-73
2022/09/05 02:01:35;;;;;;;3.25;2.00;;;;;;;;;;5026835;28;20282;-73
2022/09/05 02:04:30;;;;;;;2.85;2.15;;;;;;;;;;5029238;28;20323;-73
2022/09/05 02:07:05;;;;;;;3.72;2.20;;;;;;;;;;5042781;28;20239;-72
2022/09/05 02:09:36;;;;;;;2.83;1.98;;;;;;;;;;5003224;28;20231;-72
2022/09/05 02:12:15;;;;;;;3.95;2.17;;;;;;;;;;5030977;28;20223;-72
2022/09/05 02:14:57;;;;;;;3.67;2.10;;;;;;;;;;5024734;28;20693;-72
2022/09/05 02:17:41;;;;;;;2.17;2.08;;;;;;;;;;5029353;28;20216;-72
2022/09/05 02:20:30;;;;;;;4.50;2.15;;;;;;;;;;5033748;28;20712;-72
2022/09/05 02:22:55;;;;;;;2.28;2.08;;;;;;;;;;5028339;28;20235;-74
2022/09/05 02:25:26;;;;;;;2.58;2.05;;;;;;;;;;5036168;28;20224;-72
2022/09/05 02:28:00;;;;;;;2.83;2.30;;;;;;;;;;5019693;28;20246;-73
2022/09/05 02:30:34;;;;;;;2.03;1.90;;;;;;;;;;5019173;28;20219;-73
2022/09/05 02:33:15;;;;;;;3.50;2.08;;;;;;;;;;4986033;28;20233;-72
2022/09/05 02:36:02;;;;;;;2.22;2.03;;;;;;;;;;5006256;28;20930;-74
2022/09/05 02:38:52;;;;;;;3.28;1.85;;;;;;;;;;5036005;28;20629;-73
2022/09/05 02:41:24;;;;;;;2.35;2.15;;;;;;;;;;4978425;28;20232;-73
2022/09/05 02:44:00;;;;;;;3.00;2.40;;;;;;;;;;5008780;28;20235;-74
2022/09/05 02:46:37;;;;;;;2.72;2.40;;;;;;;;;;5016524;28;20231;-73
2022/09/05 02:49:04;;;;;;;2.60;2.28;;;;;;;;;;5035079;28;20231;-73
2022/09/05 02:51:45;;;;;;;2.53;2.10;;;;;;;;;;5031018;28;20234;-73
2022/09/05 02:54:16;;;;;;;2.30;2.10;;;;;;;;;;5032668;28;20245;-72
2022/09/05 02:56:41;;;;;;;2.80;2.40;;;;;;;;;;5013051;28;20231;-73
2022/09/05 02:59:26;;;;;;;2.22;2.10;;;;;;;;;;5001452;28;20250;-72
2022/09/05 03:01:57;;;;;;;5.07;2.58;;;;;;;;;;5017434;28;20322;-72
2022/09/05 03:04:28;;;;;;;4.32;2.47;;;;;;;;;;5032598;28;20247;-72
2022/09/05 03:07:11;;;;;;;2.38;2.10;;;;;;;;;;5004907;28;20281;-72
2022/09/05 03:09:54;;;;;;;2.50;2.30;;;;;;;;;;5018231;28;20609;-72
2022/09/05 03:12:29;;;;;;;2.63;2.30;;;;;;;;;;5015393;28;20268;-71
2022/09/05 03:15:19;;;;;;;2.67;1.95;;;;;;;;;;5017994;28;20233;-72
2022/09/05 03:18:03;;;;;;;2.50;2.13;;;;;;;;;;5021445;28;20340;-72
2022/09/05 03:20:52;;;;;;;4.28;2.55;;;;;;;;;;5019939;28;20265;-72
2022/09/05 03:23:51;;;;;;;2.38;2.15;;;;;;;;;;5029048;28;20243;-72
2022/09/05 03:26:36;;;;;;;2.40;2.20;;;;;;;;;;5018926;28;20239;-72
2022/09/05 03:29:49;;;;;;;2.72;2.38;;;;;;;;;;5019598;28;20222;-72
2022/09/05 03:32:57;;;;;;;4.00;2.30;;;;;;;;;;4963655;28;20288;-72
2022/09/05 03:35:31;;;;;;;2.33;2.13;;;;;;;;;;4999401;28;20234;-72
2022/09/05 03:38:24;;;;;;;2.80;2.40;;;;;;;;;;5035908;28;20341;-72
2022/09/05 03:41:07;;;;;;;2.60;2.33;;;;;;;;;;5008580;28;20238;-72
2022/09/05 03:43:38;;;;;;;2.67;2.20;;;;;;;;;;4989657;28;20302;-73
2022/09/05 03:46:22;;;;;;;2.10;2.00;;;;;;;;;;5032672;28;20235;-73
2022/09/05 03:49:02;;;;;;;2.63;2.10;;;;;;;;;;5025024;28;20267;-72
2022/09/05 03:51:57;;;;;;;2.88;2.58;;;;;;;;;;5015947;28;20222;-72
2022/09/05 03:54:37;;;;;;;2.80;2.60;;;;;;;;;;4990572;28;20223;-73
2022/09/05 03:57:43;;;;;;;3.47;2.40;;;;;;;;;;5017916;28;20636;-73
2022/09/05 04:00:15;;;;;;;2.30;2.10;;;;;;;;;;4984511;28;20261;-73
2022/09/05 04:02:52;;;;;;;3.03;2.75;;;;;;;;;;5002559;28;20226;-73
2022/09/05 04:05:25;;;;;;;4.13;2.38;;;;;;;;;;5026307;28;20306;-72
2022/09/05 04:08:01;;;;;;;3.05;2.60;;;;;;;;;;5021717;28;20312;-73
2022/09/05 04:10:41;;;;;;;2.88;2.45;;;;;;;;;;5021613;28;20216;-72
2022/09/05 04:13:16;;;;;;;2.42;2.22;;;;;;;;;;5032771;28;20242;-72
2022/09/05 04:16:02;;;;;;;2.92;2.35;;;;;;;;;;5019155;28;20215;-73
2022/09/05 04:18:37;;;;;;;2.85;2.60;;;;;;;;;;5024451;28;20215;-72
2022/09/05 04:21:21;;;;;;;3.00;2.70;;;;;;;;;;5024726;28;20219;-73
2022/09/05 04:24:03;;;;;;;3.88;2.70;;;;;;;;;;5035735;28;20220;-74
2022/09/05 04:26:50;;;;;;;2.63;2.42;;;;;;;;;;5027268;28;20242;-73
2022/09/05 04:29:27;;;;;;;3.70;2.95;;;;;;;;;;5005058;28;20305;-72
2022/09/05 04:31:56;;;;;;;2.63;2.25;;;;;;;;;;5017758;28;20219;-73
2022/09/05 04:34:29;;;;;;;3.00;2.60;;;;;;;;;;5022786;28;20224;-73
2022/09/05 04:37:03;;;;;;;4.68;2.67;;;;;;;;;;5007348;28;20235;-73
2022/09/05 04:39:29;;;;;;;2.80;2.55;;;;;;;;;;5023204;28;20219;-72
2022/09/05 04:42:03;;;;;;;2.75;2.50;;;;;;;;;;5003592;28;20323;-72
2022/09/05 04:44:34;;;;;;;3.58;2.63;;;;;;;;;;5035533;28;20782;-73
2022/09/05 04:47:17;;;;;;;4.10;2.72;;;;;;;;;;5028945;28;20236;-72
2022/09/05 04:49:49;;;;;;;5.63;2.60;;;;;;;;;;4987692;28;20215;-72
2022/09/05 04:52:34;;;;;;;5.40;2.90;;;;;;;;;;4985189;28;20220;-74
2022/09/05 04:55:06;;;;;;;3.22;2.65;;;;;;;;;;5032477;28;20970;-74
2022/09/05 04:57:38;;;;;;;5.35;2.88;;;;;;;;;;4999940;28;20277;-73
2022/09/05 05:00:05;;;;;;;4.35;2.70;;;;;;;;;;4989589;28;20234;-73
2022/09/05 05:02:36;;;;;;;3.03;2.80;;;;;;;;;;5011723;28;20253;-74
2022/09/05 05:05:07;;;;;;;3.10;2.40;;;;;;;;;;4997054;28;20228;-74
2022/09/05 05:07:39;;;;;;;2.78;2.40;;;;;;;;;;5021843;28;20230;-73
2022/09/05 05:10:05;;;;;;;3.35;2.95;;;;;;;;;;5034419;28;20317;-73
2022/09/05 05:12:42;;;;;;;6.57;3.15;;;;;;;;;;4985383;28;20701;-73
2022/09/05 05:15:11;;;;;;;4.25;2.78;;;;;;;;;;5011763;28;20300;-73
2022/09/05 05:17:51;;;;;;;2.53;2.33;;;;;;;;;;5005904;28;20207;-72
2022/09/05 05:20:26;;;;;;;4.55;2.80;;;;;;;;;;5036252;28;20232;-73
2022/09/05 05:23:00;;;;;;;5.75;3.20;;;;;;;;;;5007548;28;20689;-72
2022/09/05 05:25:26;;;;;;;10.40;3.47;;;;;;;;;;5022143;28;20223;-73
2022/09/05 05:28:07;;;;;;;4.22;2.90;;;;;;;;;;4994637;28;20254;-73
2022/09/05 05:30:34;;;;;;;3.00;2.60;;;;;;;;;;5020949;28;20226;-73
2022/09/05 05:33:12;;;;;;;3.03;2.55;;;;;;;;;;5009668;28;20259;-73
2022/09/05 05:35:38;;;;;;;3.25;2.63;;;;;;;;;;5012674;28;20224;-73
2022/09/05 05:38:15;;;;;;;5.43;2.40;;;;;;;;;;5011950;28;20242;-73
2022/09/05 05:40:46;;;;;;;2.90;2.67;;;;;;;;;;5021510;28;21046;-73
2022/09/05 05:43:20;;;;;;;2.80;2.45;;;;;;;;;;4973577;28;20286;-73
2022/09/05 05:45:46;;;;;;;2.60;2.40;;;;;;;;;;5004354;28;20234;-72
2022/09/05 05:48:20;;;;;;;3.00;2.70;;;;;;;;;;5005618;28;20771;-72
2022/09/05 05:51:12;;;;;;;4.72;2.90;;;;;;;;;;5031466;28;20236;-73
2022/09/05 05:53:55;;;;;;;2.88;2.40;;;;;;;;;;5021532;28;20633;-73
2022/09/05 05:56:42;;;;;;;2.60;2.40;;;;;;;;;;5042953;28;20631;-73
2022/09/05 05:59:17;;;;;;;3.08;2.78;;;;;;;;;;4998287;28;20220;-73
2022/09/05 06:02:02;;;;;;;2.75;2.55;;;;;;;;;;5019601;28;20226;-73
2022/09/05 06:05:17;;;;;;;2.97;2.67;;;;;;;;;;5037078;28;20227;-74
2022/09/05 06:08:05;;;;;;;2.70;2.50;;;;;;;;;;5002740;28;20641;-74
2022/09/05 06:10:52;;;;;;;2.95;2.70;;;;;;;;;;5027520;28;20227;-73
2022/09/05 06:13:39;;;;;;;3.70;3.15;;;;;;;;;;4997449;28;20223;-73
2022/09/05 06:16:07;;;;;;;5.35;2.97;;;;;;;;;;5018800;28;20235;-73
2022/09/05 06:18:58;;;;;;;3.53;2.75;;;;;;;;;;5036032;28;20227;-73
2022/09/05 06:21:44;;;;;;;3.30;2.70;;;;;;;;;;5029222;28;20216;-73
2022/09/05 06:24:28;;;;;;;2.58;2.38;;;;;;;;;;5042040;28;20239;-74
2022/09/05 06:27:14;;;;;;;3.72;2.70;;;;;;;;;;5010172;28;20219;-74
2022/09/05 06:30:00;;;;;;;3.92;2.92;;;;;;;;;;5025537;28;20243;-73
2022/09/05 06:32:59;;;;;;;4.13;2.80;;;;;;;;;;5009748;28;20224;-74
2022/09/05 06:35:41;;;;;;;3.47;2.55;;;;;;;;;;5010079;28;20242;-76
2022/09/05 06:38:30;;;;;;;2.70;2.50;;;;;;;;;;5023139;28;20634;-74
2022/09/05 06:41:19;;;;;;;3.47;2.83;;;;;;;;;;5021067;28;20354;-73
2022/09/05 06:44:14;;;;;;;3.28;2.97;;;;;;;;;;5028947;28;20262;-74
2022/09/05 06:46:39;;;;;;;3.90;3.60;;;;;;;;;;5034996;28;20270;-73
2022/09/05 06:49:16;;;;;;;4.30;2.88;;;;;;;;;;5000284;28;20215;-74
2022/09/05 06:51:50;;;;;;;3.00;2.70;;;;;;;;;;5026873;28;20228;-74
2022/09/05 06:54:38;;;;;;;3.22;2.92;;;;;;;;;;5032040;28;20327;-72
2022/09/05 06:57:22;;;;;;;3.13;2.83;;;;;;;;;;5011462;28;20227;-74
2022/09/05 07:00:06;;;;;;;5.20;3.00;;;;;;;;;;5015513;28;20602;-72
2022/09/05 07:02:33;;;;;;;3.40;3.10;;;;;;;;;;5005842;28;20259;-73
2022/09/05 07:05:07;;;;;;;3.20;2.90;;;;;;;;;;5040135;28;20234;-74
2022/09/05 07:07:40;;;;;;;2.97;2.78;;;;;;;;;;5012075;28;20374;-74
2022/09/05 07:10:16;;;;;;;3.13;2.65;;;;;;;;;;4998626;28;20225;-73
2022/09/05 07:13:02;;;;;;;3.35;3.05;;;;;;;;;;5026965;28;20215;-74
2022/09/05 07:16:01;;;;;;;3.40;3.10;;;;;;;;;;4992494;28;20223;-73
2022/09/05 07:18:52;;;;;;;3.88;2.70;;;;;;;;;;5001142;28;20277;-74
2022/09/05 07:21:27;;;;;;;5.97;2.92;;;;;;;;;;4990740;28;20273;-73
2022/09/05 07:24:03;;;;;;;2.83;2.63;;;;;;;;;;5012060;28;20235;-74
2022/09/05 07:26:38;;;;;;;4.45;3.22;;;;;;;;;;5007434;28;20693;-73
2022/09/05 07:29:09;;;;;;;3.45;2.80;;;;;;;;;;5026885;28;20227;-74
2022/09/05 07:31:36;;;;;;;3.50;3.20;;;;;;;;;;5007719;28;20238;-73
2022/09/05 07:34:28;;;;;;;3.30;3.00;;;;;;;;;;5008907;28;20220;-73
2022/09/05 07:36:56;;;;;;;3.55;2.90;;;;;;;;;;5019742;28;20331;-74
2022/09/05 07:39:26;;;;;;;3.45;3.00;;;;;;;;;;5004833;28;20318;-74
2022/09/05 07:41:56;;;;;;;3.15;2.85;;;;;;;;;;5000320;28;20277;-73
2022/09/05 07:44:33;;;;;;;5.03;2.90;;;;;;;;;;5027818;28;20265;-73
2022/09/05 07:47:29;;;;;;;5.68;2.80;;;;;;;;;;5009975;28;20235;-74
2022/09/05 07:49:55;;;;;;;4.30;3.30;;;;;;;;;;4992365;28;20701;-73
2022/09/05 07:52:21;;;;;;;7.00;3.40;;;;;;;;;;5007425;28;20255;-74
2022/09/05 07:54:50;;;;;;;4.28;2.88;;;;;;;;;;5008824;28;20689;-73
2022/09/05 07:57:32;;;;;;;5.72;2.65;;;;;;;;;;5005647;28;20286;-73
2022/09/05 08:00:10;;;;;;;3.53;3.15;;;;;;;;;;5019247;28;20223;-74
2022/09/05 08:02:45;;;;;;;4.03;3.00;;;;;;;;;;4993198;28;20232;-73
2022/09/05 08:05:13;;;;;;;4.55;3.42;;;;;;;;;;5003707;28;20222;-74
2022/09/05 08:07:39;;;;;;;3.45;2.90;;;;;;;;;;5003829;28;20245;-74
2022/09/05 08:10:13;;;;;;;3.35;3.05;;;;;;;;;;4989636;28;20306;-74
2022/09/05 08:13:01;;;;;;;3.88;3.10;;;;;;;;;;4972866;28;20227;-74
2022/09/05 08:15:29;;;;;;;3.33;3.03;;;;;;;;;;5011263;28;20735;-75
2022/09/05 08:18:15;;;;;;;4.78;3.10;;;;;;;;;;4988610;28;20269;-74
2022/09/05 08:20:55;;;;;;;4.72;3.40;;;;;;;;;;5018170;28;20270;-74
2022/09/05 08:23:32;;;;;;;5.57;3.40;;;;;;;;;;5001154;28;20232;-75
2022/09/05 08:26:14;;;;;;;5.40;3.10;;;;;;;;;;5032894;28;20684;-74
2022/09/05 08:28:45;;;;;;;5.80;3.30;;;;;;;;;;4993756;28;20257;-74
2022/09/05 08:31:23;;;;;;;4.95;3.03;;;;;;;;;;5035271;28;20791;-75
2022/09/05 08:33:51;;;;;;;4.75;3.25;;;;;;;;;;5024389;28;20221;-75
2022/09/05 08:36:22;;;;;;;3.03;2.83;;;;;;;;;;4995488;28;20223;-74
2022/09/05 08:38:49;;;;;;;3.47;3.13;;;;;;;;;;5038930;28;20220;-74
2022/09/05 08:41:30;;;;;;;5.38;3.13;;;;;;;;;;4993582;28;20806;-74
2022/09/05 08:44:14;;;;;;;4.30;3.00;;;;;;;;;;4984570;28;20848;-73
2022/09/05 08:46:49;;;;;;;3.20;2.90;;;;;;;;;;5007168;28;20282;-73
2022/09/05 08:49:26;;;;;;;3.92;3.53;;;;;;;;;;5013224;28;20232;-74
2022/09/05 08:51:56;;;;;;;3.90;3.17;;;;;;;;;;5033449;28;20227;-74
2022/09/05 08:54:54;;;;;;;3.38;3.08;;;;;;;;;;4972947;28;20235;-74
2022/09/05 08:57:45;;;;;;;3.47;3.17;;;;;;;;;;5037686;28;20763;-74
2022/09/05 09:00:19;;;;;;;3.20;2.90;;;;;;;;;;5037216;28;20607;-74
2022/09/05 09:03:11;;;;;;;4.30;3.08;;;;;;;;;;5007938;28;20225;-73
2022/09/05 09:06:06;;;;;;;3.55;3.10;;;;;;;;;;5009072;28;20220;-74
2022/09/05 09:09:02;;;;;;;4.72;2.88;;;;;;;;;;5037072;28;20231;-75
2022/09/05 09:11:41;;;;;;;3.40;2.80;;;;;;;;;;5024466;28;20298;-74
2022/09/05 09:14:34;;;;;;;3.95;3.20;;;;;;;;;;5020664;28;20230;-75
2022/09/05 09:17:03;;;;;;;4.35;3.10;;;;;;;;;;5021049;28;20337;-74
2022/09/05 09:20:03;;;;;;;3.25;2.88;;;;;;;;;;5017630;28;20231;-74
2022/09/05 09:22:46;;;;;;;3.65;2.75;;;;;;;;;;5012436;28;20258;-74
2022/09/05 09:25:17;;;;;;;3.63;2.65;;;;;;;;;;5032265;28;20227;-73
2022/09/05 09:28:33;;;;;;;4.40;2.95;;;;;;;;;;4987698;28;20273;-76
2022/09/05 09:31:29;;;;;;;4.07;3.03;;;;;;;;;;4990160;28;20227;-74
2022/09/05 09:34:18;;;;;;;3.10;2.80;;;;;;;;;;5022034;28;20235;-75
2022/09/05 09:37:03;;;;;;;3.20;2.83;;;;;;;;;;5013288;28;20755;-75
2022/09/05 09:39:46;;;;;;;4.68;3.00;;;;;;;;;;5020971;28;20227;-74
2022/09/05 09:43:00;;;;;;;5.90;3.08;;;;;;;;;;5041970;28;20338;-74
2022/09/05 09:45:54;;;;;;;4.65;2.70;;;;;;;;;;4961166;28;20241;-74
2022/09/05 09:48:28;;;;;;;3.78;2.95;;;;;;;;;;4992305;28;20721;-73
2022/09/05 09:51:10;;;;;;;4.88;3.42;;;;;;;;;;5041774;28;20224;-74
2022/09/05 09:53:45;;;;;;;3.30;3.00;;;;;;;;;;5015545;28;20885;-74
2022/09/05 09:56:31;;;;;;;3.55;3.17;;;;;;;;;;5038440;28;20237;-74
2022/09/05 09:59:12;;;;;;;3.65;2.95;;;;;;;;;;4994061;28;20223;-74
2022/09/05 10:01:52;;;;;;;3.50;2.63;;;;;;;;;;5008438;28;20811;-74
2022/09/05 10:04:35;;;;;;;3.78;2.80;;;;;;;;;;5022018;28;20606;-74
2022/09/05 10:07:21;;;;;;;4.82;2.70;;;;;;;;;;5041744;28;20310;-73
2022/09/05 10:10:05;;;;;;;5.18;3.08;;;;;;;;;;5024329;28;20242;-72
2022/09/05 10:13:09;;;;;;;3.42;3.08;;;;;;;;;;5009885;28;20247;-75
2022/09/05 10:15:45;;;;;;;3.10;2.80;;;;;;;;;;5025464;28;20229;-74
2022/09/05 10:18:31;;;;;;;3.85;3.30;;;;;;;;;;5034980;28;20650;-74
2022/09/05 10:21:15;;;;;;;4.60;3.33;;;;;;;;;;5022188;28;20231;-74
2022/09/05 10:24:15;;;;;;;4.13;2.90;;;;;;;;;;5011015;28;20616;-75
2022/09/05 10:27:14;;;;;;;3.75;3.22;;;;;;;;;;5038808;28;21105;-74
2022/09/05 10:29:43;;;;;;;4.65;3.22;;;;;;;;;;5035857;28;20330;-74
2022/09/05 10:32:22;;;;;;;3.60;2.70;;;;;;;;;;5026958;28;20224;-75
2022/09/05 10:34:57;;;;;;;2.92;2.72;;;;;;;;;;5007919;28;20224;-72
2022/09/05 10:37:30;;;;;;;3.83;2.85;;;;;;;;;;5004451;28;20230;-72
2022/09/05 10:39:56;;;;;;;4.10;3.20;;;;;;;;;;4969767;28;20698;-74
2022/09/05 10:42:33;;;;;;;3.30;2.92;;;;;;;;;;4968720;28;20239;-74
2022/09/05 10:45:01;;;;;;;3.75;3.10;;;;;;;;;;4988614;28;20227;-74
2022/09/05 10:47:40;;;;;;;3.63;3.33;;;;;;;;;;4989117;28;20587;-74
2022/09/05 10:50:11;;;;;;;3.70;2.60;;;;;;;;;;5020620;28;20238;-75
2022/09/05 10:53:08;;;;;;;6.00;3.25;;;;;;;;;;5027421;28;20227;-74
2022/09/05 10:55:34;;;;;;;3.80;3.40;;;;;;;;;;5003578;28;20231;-75
2022/09/05 10:58:27;;;;;;;4.13;2.95;;;;;;;;;;5022061;28;20230;-74
2022/09/05 11:01:31;;;;;;;4.65;2.97;;;;;;;;;;5020550;28;20726;-74
2022/09/05 11:04:10;;;;;;;3.00;2.70;;;;;;;;;;5020446;28;20231;-74
2022/09/05 11:06:47;;;;;;;3.67;2.78;;;;;;;;;;5024422;28;20218;-73
2022/09/05 11:09:55;;;;;;;4.30;3.10;;;;;;;;;;5034275;28;20262;-73
2022/09/05 11:12:38;;;;;;;3.50;3.20;;;;;;;;;;5037058;28;21202;-73
2022/09/05 11:15:13;;;;;;;3.45;3.15;;;;;;;;;;5040069;28;20705;-73
2022/09/05 11:17:40;;;;;;;5.45;3.00;;;;;;;;;;4992934;28;20329;-73
2022/09/05 11:20:22;;;;;;;3.08;2.80;;;;;;;;;;4987539;28;20362;-73
2022/09/05 11:22:47;;;;;;;3.20;3.00;;;;;;;;;;5031674;28;20228;-73
2022/09/05 11:25:20;;;;;;;6.55;3.08;;;;;;;;;;5003217;28;20211;-72
2022/09/05 11:27:48;;;;;;;3.90;2.85;;;;;;;;;;5020407;28;20254;-72
2022/09/05 11:30:19;;;;;;;2.90;2.70;;;;;;;;;;4992596;28;20259;-72
2022/09/05 11:33:09;;;;;;;4.30;2.90;;;;;;;;;;5020860;28;20306;-72
2022/09/05 11:35:53;;;;;;;5.10;2.97;;;;;;;;;;5033950;28;21000;-74
2022/09/05 11:38:47;;;;;;;5.50;3.08;;;;;;;;;;4993764;28;20652;-73
2022/09/05 11:41:13;;;;;;;3.88;2.90;;;;;;;;;;5018359;28;20211;-72
2022/09/05 11:44:01;;;;;;;3.63;2.88;;;;;;;;;;5019740;28;20234;-72
2022/09/05 11:46:31;;;;;;;6.25;3.10;;;;;;;;;;5010567;28;20620;-71
2022/09/05 11:49:20;;;;;;;4.55;2.83;;;;;;;;;;5009094;28;20227;-73
2022/09/05 11:52:25;;;;;;;8.82;3.10;;;;;;;;;;5034202;28;20306;-70
2022/09/05 11:55:20;;;;;;;4.80;3.13;;;;;;;;;;4994472;28;20237;-73
2022/09/05 11:58:05;;;;;;;3.40;2.92;;;;;;;;;;5017156;28;20709;-72
2022/09/05 12:00:59;;;;;;;3.42;3.00;;;;;;;;;;5018368;28;20220;-72
2022/09/05 12:03:37;;;;;;;4.63;2.90;;;;;;;;;;5037340;28;20667;-72
2022/09/05 12:06:21;;;;;;;4.03;2.72;;;;;;;;;;5034302;28;20242;-72
2022/09/05 12:08:56;;;;;;;4.82;3.03;;;;;;;;;;5019015;28;20607;-73
2022/09/05 12:11:56;;;;;;;7.78;2.83;;;;;;;;;;5018768;28;20231;-74
2022/09/05 12:14:45;;;;;;;4.45;3.17;;;;;;;;;;5021724;28;20222;-72
2022/09/05 12:17:32;;;;;;;7.47;2.80;;;;;;;;;;5008280;28;20227;-71
2022/09/05 12:20:11;;;;;;;9.98;3.17;;;;;;;;;;5034104;28;20760;-72
2022/09/05 12:22:52;;;;;;;4.18;3.08;;;;;;;;;;5006122;28;20315;-72
2022/09/05 12:25:59;;;;;;;3.28;2.70;;;;;;;;;;5000127;28;20310;-71
2022/09/05 12:28:47;;;;;;;5.20;3.00;;;;;;;;;;5005737;28;20234;-72
2022/09/05 12:31:50;;;;;;;5.35;2.88;;;;;;;;;;5019376;28;20697;-72
2022/09/05 12:34:48;;;;;;;3.03;2.72;;;;;;;;;;5013743;28;20281;-73
2022/09/05 12:37:14;;;;;;;3.22;2.53;;;;;;;;;;5026130;28;20316;-71
2022/09/05 12:39:44;;;;;;;3.15;2.85;;;;;;;;;;4990647;28;20254;-72
2022/09/05 12:42:21;;;;;;;3.95;2.72;;;;;;;;;;5028056;28;20716;-72
2022/09/05 12:45:08;;;;;;;5.80;3.10;;;;;;;;;;5037338;28;20582;-71
2022/09/05 12:48:08;;;;;;;3.28;2.80;;;;;;;;;;5015985;28;20246;-72
2022/09/05 12:50:42;;;;;;;3.40;2.90;;;;;;;;;;5033755;28;20302;-73
2022/09/05 12:53:19;;;;;;;3.45;2.83;;;;;;;;;;5015792;28;20275;-72
2022/09/05 12:56:16;;;;;;;5.03;2.70;;;;;;;;;;5006812;28;20219;-74
2022/09/05 12:58:50;;;;;;;4.55;3.05;;;;;;;;;;4982575;28;20302;-72
2022/09/05 13:01:30;;;;;;;3.47;2.83;;;;;;;;;;5003303;28;20292;-72
2022/09/05 13:04:20;;;;;;;5.93;2.97;;;;;;;;;;5010559;28;20247;-73
2022/09/05 13:06:52;;;;;;;4.60;2.83;;;;;;;;;;5020937;28;20227;-73
2022/09/05 13:09:22;;;;;;;2.97;2.60;;;;;;;;;;5015209;28;20250;-73
2022/09/05 13:11:53;;;;;;;4.38;2.55;;;;;;;;;;5004624;28;20220;-71
2022/09/05 13:14:27;;;;;;;4.55;2.90;;;;;;;;;;5040652;28;20224;-72
2022/09/05 13:16:55;;;;;;;4.57;2.80;;;;;;;;;;4981294;28;20889;-72
2022/09/05 13:19:39;;;;;;;4.68;3.17;;;;;;;;;;5022993;28;21021;-71
2022/09/05 13:22:08;;;;;;;2.88;2.67;;;;;;;;;;5023988;28;20224;-72
2022/09/05 13:24:40;;;;;;;4.97;3.17;;;;;;;;;;5004532;28;20231;-73
2022/09/05 13:27:15;;;;;;;3.90;2.92;;;;;;;;;;5013243;28;20251;-72
2022/09/05 13:29:53;;;;;;;4.13;2.90;;;;;;;;;;5019177;28;20648;-73
2022/09/05 13:32:30;;;;;;;4.97;2.85;;;;;;;;;;5028200;28;20223;-73
2022/09/05 13:35:03;;;;;;;3.00;2.65;;;;;;;;;;5027941;28;20368;-73
2022/09/05 13:37:33;;;;;;;3.58;2.70;;;;;;;;;;5020999;28;20231;-72
2022/09/05 13:40:08;;;;;;;3.28;2.97;;;;;;;;;;5038971;28;20235;-72
2022/09/05 13:42:38;;;;;;;5.80;2.85;;;;;;;;;;5018340;28;20234;-71
2022/09/05 13:45:04;;;;;;;5.43;3.05;;;;;;;;;;5006064;28;20223;-71
2022/09/05 13:48:16;;;;;;;3.28;2.97;;;;;;;;;;4991036;28;20223;-73
2022/09/05 13:50:51;;;;;;;3.78;2.67;;;;;;;;;;5018035;28;20230;-72
2022/09/05 13:53:38;;;;;;;4.15;2.92;;;;;;;;;;5025068;28;20227;-72
2022/09/05 13:56:24;;;;;;;3.85;3.05;;;;;;;;;;5011744;28;20226;-71
2022/09/05 13:58:53;;;;;;;3.67;2.90;;;;;;;;;;5005124;28;20220;-71
2022/09/05 14:01:56;;;;;;;3.80;2.65;;;;;;;;;;5002667;28;20222;-73
2022/09/05 14:04:32;;;;;;;5.28;2.95;;;;;;;;;;5030238;28;20306;-71
2022/09/05 14:07:10;;;;;;;8.40;3.05;;;;;;;;;;5037159;28;20232;-73
2022/09/05 14:10:16;;;;;;;5.50;3.30;;;;;;;;;;5018782;28;20725;-72
2022/09/05 14:12:47;;;;;;;17.23;4.20;;;;;;;;;;5020240;28;20215;-73
2022/09/05 14:15:47;;;;;;;3.47;2.95;;;;;;;;;;5019158;28;20223;-74
2022/09/05 14:21:14;;;;;;;4.00;2.65;;;;;;;;;;5037717;28;20231;-74
2022/09/05 14:21:19;;;;;;;2.97;2.63;;;;;;;;;;5020866;28;20254;-73
2022/09/05 14:23:58;;;;;;;3.00;2.55;;;;;;;;;;5004872;28;20220;-72
2022/09/05 14:26:45;;;;;;;4.80;2.65;;;;;;;;;;5028464;28;20265;-73
2022/09/05 14:29:23;;;;;;;3.28;2.70;;;;;;;;;;5012914;28;20242;-73
2022/09/05 14:32:14;;;;;;;3.47;2.60;;;;;;;;;;5009310;28;20310;-72
2022/09/05 14:35:02;;;;;;;5.13;2.60;;;;;;;;;;4997683;28;20269;-72
2022/09/05 14:37:44;;;;;;;2.90;2.28;;;;;;;;;;5019632;28;20224;-72
2022/09/05 14:40:35;;;;;;;3.28;2.35;;;;;;;;;;5036787;28;20222;-72
2022/09/05 14:43:04;;;;;;;4.13;2.45;;;;;;;;;;5005753;28;20784;-72
2022/09/05 14:45:36;;;;;;;3.20;2.50;;;;;;;;;;5005671;28;20227;-71
2022/09/05 14:48:30;;;;;;;9.25;2.38;;;;;;;;;;5014928;28;20337;-70
2022/09/05 14:51:00;;;;;;;3.17;2.30;;;;;;;;;;5019192;28;20228;-71
2022/09/05 14:53:27;;;;;;;2.60;2.40;;;;;;;;;;5016150;28;20220;-74
2022/09/05 14:56:05;;;;;;;3.75;2.80;;;;;;;;;;4974011;28;20243;-73
2022/09/05 14:58:33;;;;;;;2.67;2.47;;;;;;;;;;5001966;28;20235;-72
2022/09/05 15:01:01;;;;;;;2.78;2.25;;;;;;;;;;5021502;28;20216;-72
2022/09/05 15:03:36;;;;;;;3.22;2.90;;;;;;;;;;5003817;28;20227;-72
2022/09/05 15:06:22;;;;;;;3.83;2.78;;;;;;;;;;4989665;28;20673;-73
2022/09/05 15:09:01;;;;;;;4.80;2.22;;;;;;;;;;5007083;28;20257;-72
2022/09/05 15:11:33;;;;;;;4.43;2.42;;;;;;;;;;5007475;28;20220;-72
2022/09/05 15:14:02;;;;;;;2.92;2.30;;;;;;;;;;4985145;28;20310;-71
2022/09/05 15:16:27;;;;;;;3.70;2.33;;;;;;;;;;5034186;28;21156;-72
2022/09/05 15:18:55;;;;;;;5.00;2.65;;;;;;;;;;5010578;28;20223;-73
2022/09/05 15:21:32;;;;;;;3.05;2.33;;;;;;;;;;4998679;28;20216;-73
2022/09/05 15:24:00;;;;;;;3.75;2.28;;;;;;;;;;5026500;28;20313;-72
2022/09/05 15:26:29;;;;;;;4.03;2.50;;;;;;;;;;5024036;28;20219;-73
2022/09/05 15:29:10;;;;;;;5.55;2.65;;;;;;;;;;5018831;28;20228;-73
2022/09/05 15:31:36;;;;;;;6.25;2.50;;;;;;;;;;5009034;28;20231;-72
2022/09/05 15:34:18;;;;;;;3.40;2.30;;;;;;;;;;5012712;28;20216;-73
2022/09/05 15:36:44;;;;;;;2.40;2.20;;;;;;;;;;5009555;28;20304;-72
2022/09/05 15:39:21;;;;;;;4.03;2.50;;;;;;;;;;5000081;28;20701;-72
2022/09/05 15:41:50;;;;;;;7.38;2.20;;;;;;;;;;5031638;28;20251;-73
2022/09/05 15:44:24;;;;;;;4.35;2.00;;;;;;;;;;5031068;28;20228;-72
2022/09/05 15:47:00;;;;;;;2.55;2.30;;;;;;;;;;5016550;28;20231;-72
2022/09/05 15:49:41;;;;;;;2.30;2.10;;;;;;;;;;5014655;28;20603;-73
2022/09/05 15:52:33;;;;;;;2.08;1.90;;;;;;;;;;5015772;28;20236;-72
2022/09/05 15:55:20;;;;;;;4.35;2.47;;;;;;;;;;5005815;28;20239;-72
2022/09/05 15:57:55;;;;;;;2.63;2.30;;;;;;;;;;5010150;28;20227;-72
2022/09/05 16:00:33;;;;;;;5.18;2.25;;;;;;;;;;4992602;28;20772;-72
2022/09/05 16:03:24;;;;;;;4.13;2.30;;;;;;;;;;5035631;28;20247;-72